Time;durP1;ratioP1;P1;durP2;ratioP2;P2;SDS_P1;SDS_P2;PMS_P1;PMS_P2;Temp;Humidity;BMP_temperature;BMP_pressure;BME280_temperature;BME280_humidity;BME280_pressure;Samples;Min_cycle;Max_cycle;Signal;HPM_P1;HPM_P2
2023/09/15 00:00:25;;;;;;;4.38;3.70;;;15.20;99.90;;;;;;5032899;28;20190;-84
2023/09/15 00:02:55;;;;;;;3.53;3.20;;;15.40;99.90;;;;;;5034567;28;20247;-84
2023/09/15 00:05:28;;;;;;;3.80;3.47;;;15.50;99.90;;;;;;5041626;28;20198;-84
2023/09/15 00:07:56;;;;;;;3.67;3.10;;;15.20;99.90;;;;;;5034173;28;20182;-84
2023/09/15 00:10:22;;;;;;;3.55;3.25;;;13.90;99.90;;;;;;5036466;28;20431;-84
2023/09/15 00:12:48;;;;;;;4.00;3.60;;;;;;;;;;5040860;28;20198;-84
2023/09/15 00:15:15;;;;;;;3.47;3.17;;;15.00;99.90;;;;;;5038875;28;20798;-84
2023/09/15 00:17:42;;;;;;;5.60;3.22;;;16.00;99.90;;;;;;5038308;28;20829;-84
2023/09/15 00:20:16;;;;;;;3.60;3.30;;;14.90;99.90;;;;;;5034259;28;20274;-84
2023/09/15 00:22:50;;;;;;;4.10;3.20;;;15.10;99.90;;;;;;5031051;28;20208;-84
2023/09/15 00:25:20;;;;;;;3.70;2.90;;;15.10;99.90;;;;;;5034392;28;20206;-84
2023/09/15 00:27:48;;;;;;;3.47;3.15;;;14.80;99.90;;;;;;5036723;28;20194;-84
2023/09/15 00:30:15;;;;;;;6.43;3.20;;;16.20;99.90;;;;;;5037116;28;20202;-84
2023/09/15 00:32:40;;;;;;;3.50;3.00;;;15.40;99.90;;;;;;5032182;28;20612;-84
2023/09/15 00:35:06;;;;;;;3.57;3.23;;;16.30;99.90;;;;;;5045574;28;20185;-84
2023/09/15 00:37:32;;;;;;;4.00;3.00;;;15.10;99.90;;;;;;5031535;28;20186;-84
2023/09/15 00:40:00;;;;;;;6.30;3.60;;;15.70;99.90;;;;;;5029249;28;20225;-84
2023/09/15 00:42:26;;;;;;;3.58;3.28;;;16.40;99.90;;;;;;5034206;28;20288;-84
2023/09/15 00:44:51;;;;;;;3.40;3.10;;;16.30;99.90;;;;;;5038956;28;20704;-84
2023/09/15 00:47:18;;;;;;;4.00;3.60;;;14.80;99.90;;;;;;5036158;28;20821;-84
2023/09/15 00:49:45;;;;;;;3.95;3.28;;;15.40;99.90;;;;;;5031963;28;20561;-84
2023/09/15 00:52:11;;;;;;;4.40;3.00;;;15.70;99.90;;;;;;5032930;28;20202;-84
2023/09/15 00:54:38;;;;;;;3.78;3.47;;;15.00;99.90;;;;;;5039370;28;20594;-84
2023/09/15 00:57:05;;;;;;;3.25;2.95;;;16.30;99.90;;;;;;5035084;28;20454;-84
2023/09/15 00:59:31;;;;;;;3.95;3.00;;;14.50;99.90;;;;;;5034110;28;20263;-84
2023/09/15 01:01:57;;;;;;;3.78;3.30;;;16.20;99.90;;;;;;5036993;28;20206;-84
2023/09/15 01:04:23;;;;;;;3.65;3.35;;;15.70;99.90;;;;;;5036741;28;20195;-84
2023/09/15 01:06:50;;;;;;;3.83;3.15;;;14.90;99.90;;;;;;5031859;28;20269;-84
2023/09/15 01:09:16;;;;;;;4.15;2.65;;;16.10;99.90;;;;;;5031823;28;20182;-84
2023/09/15 01:11:42;;;;;;;3.53;3.20;;;;;;;;;;5031123;28;20202;-84
2023/09/15 01:14:08;;;;;;;4.03;3.42;;;14.30;99.90;;;;;;5029721;28;20442;-84
2023/09/15 01:16:43;;;;;;;4.77;3.80;;;15.80;99.90;;;;;;5035357;28;20193;-84
2023/09/15 01:19:17;;;;;;;4.30;3.20;;;14.80;99.90;;;;;;5033226;28;20186;-84
2023/09/15 01:22:01;;;;;;;4.80;3.65;;;14.70;99.90;;;;;;5045295;28;20202;-84
2023/09/15 01:24:53;;;;;;;3.42;3.13;;;14.70;99.90;;;;;;5027890;28;20205;-84
2023/09/15 01:27:39;;;;;;;3.85;3.15;;;14.40;99.90;;;;;;5032714;28;20198;-84
2023/09/15 01:30:05;;;;;;;4.00;2.75;;;13.50;99.90;;;;;;5025798;28;20245;-84
2023/09/15 01:32:34;;;;;;;3.38;2.60;;;14.30;99.90;;;;;;5035608;28;20197;-84
2023/09/15 01:35:04;;;;;;;4.70;3.20;;;15.90;99.90;;;;;;5032109;28;20269;-83
2023/09/15 01:37:29;;;;;;;3.45;2.90;;;14.40;99.90;;;;;;5036648;28;20182;-84
2023/09/15 01:39:55;;;;;;;3.70;3.17;;;;;;;;;;5033037;28;20178;-84
2023/09/15 01:42:21;;;;;;;4.50;3.13;;;14.20;99.90;;;;;;5034374;28;20206;-84
2023/09/15 01:44:47;;;;;;;5.53;3.17;;;15.00;99.90;;;;;;5030056;28;20823;-84
2023/09/15 01:47:20;;;;;;;4.13;3.47;;;14.20;99.90;;;;;;5039709;28;20178;-84
2023/09/15 01:49:47;;;;;;;4.72;3.03;;;16.60;99.90;;;;;;5034702;28;20190;-84
2023/09/15 01:52:13;;;;;;;3.45;3.15;;;15.20;99.90;;;;;;5038744;28;20258;-84
2023/09/15 01:54:39;;;;;;;4.03;3.63;;;14.60;99.90;;;;;;5031963;28;20208;-84
2023/09/15 01:57:04;;;;;;;3.07;2.73;;;15.30;99.90;;;;;;5035081;28;20444;-84
2023/09/15 01:59:30;;;;;;;3.50;3.13;;;15.50;99.90;;;;;;5031725;28;20185;-84
2023/09/15 02:01:56;;;;;;;3.27;2.87;;;15.40;99.90;;;;;;5050739;28;20461;-84
2023/09/15 02:04:22;;;;;;;4.83;3.27;;;14.90;99.90;;;;;;5033045;28;20210;-84
2023/09/15 02:06:47;;;;;;;3.40;3.10;;;14.30;99.90;;;;;;5031875;28;20200;-84
2023/09/15 02:09:18;;;;;;;3.93;3.50;;;16.10;99.90;;;;;;5033446;28;20456;-84
2023/09/15 02:11:43;;;;;;;3.90;2.90;;;14.70;99.90;;;;;;5034690;28;20686;-84
2023/09/15 02:14:09;;;;;;;3.47;3.17;;;14.70;99.90;;;;;;5030368;28;20197;-84
2023/09/15 02:16:35;;;;;;;3.50;3.03;;;15.40;99.90;;;;;;5025932;28;20212;-84
2023/09/15 02:19:01;;;;;;;5.10;2.73;;;16.20;99.90;;;;;;5033171;28;20194;-83
2023/09/15 02:21:26;;;;;;;3.67;3.30;;;14.80;99.90;;;;;;5030344;28;20188;-84
2023/09/15 02:23:52;;;;;;;3.70;3.20;;;15.20;99.90;;;;;;5028198;28;20732;-83
2023/09/15 02:26:21;;;;;;;4.30;3.90;;;;;;;;;;5031316;28;20195;-83
2023/09/15 02:28:46;;;;;;;3.35;3.05;;;14.10;99.90;;;;;;5038791;28;20189;-83
2023/09/15 02:31:12;;;;;;;4.20;3.67;;;14.90;99.90;;;;;;5052492;23;20226;-88
2023/09/15 02:33:37;;;;;;;5.80;3.60;;;14.40;99.90;;;;;;5054843;28;20548;-88
2023/09/15 02:36:03;;;;;;;4.27;3.67;;;14.50;99.90;;;;;;5049460;28;20190;-88
2023/09/15 02:38:29;;;;;;;3.70;3.40;;;14.10;99.90;;;;;;5073546;28;20192;-88
2023/09/15 02:40:55;;;;;;;2.83;2.60;;;14.30;99.90;;;;;;5061385;28;20257;-87
2023/09/15 02:43:20;;;;;;;3.97;3.60;;;14.60;99.90;;;;;;5038633;28;20216;-88
2023/09/15 02:45:46;;;;;;;3.67;3.20;;;13.90;99.90;;;;;;5041361;28;20196;-88
2023/09/15 02:48:11;;;;;;;3.50;2.87;;;14.00;99.90;;;;;;5047521;28;20185;-88
2023/09/15 02:50:46;;;;;;;7.23;2.93;;;14.10;99.90;;;;;;5041741;28;20185;-87
2023/09/15 02:53:12;;;;;;;3.63;3.15;;;14.30;99.90;;;;;;5036409;28;20201;-87
2023/09/15 02:55:37;;;;;;;3.65;3.28;;;14.20;99.90;;;;;;5033688;28;20291;-88
2023/09/15 02:58:04;;;;;;;4.20;3.47;;;14.20;99.90;;;;;;5064539;28;20194;-87
2023/09/15 03:00:30;;;;;;;4.80;3.80;;;14.10;99.90;;;;;;5061932;28;20193;-88
2023/09/15 03:02:56;;;;;;;3.57;3.27;;;14.00;99.90;;;;;;5037426;28;20575;-88
2023/09/15 03:05:21;;;;;;;3.47;3.17;;;14.30;99.90;;;;;;5040558;28;20208;-88
2023/09/15 03:07:47;;;;;;;4.00;3.47;;;14.10;99.90;;;;;;5055166;28;20178;-88
2023/09/15 03:10:12;;;;;;;3.43;3.13;;;14.40;99.90;;;;;;5073755;28;20283;-88
2023/09/15 03:12:38;;;;;;;3.63;3.10;;;13.90;99.90;;;;;;5074463;28;20210;-88
2023/09/15 03:15:08;;;;;;;3.60;3.30;;;14.00;99.90;;;;;;5041061;28;20205;-88
2023/09/15 03:17:34;;;;;;;5.95;3.30;;;13.90;99.90;;;;;;5036948;28;20189;-87
2023/09/15 03:20:00;;;;;;;3.58;3.25;;;13.80;99.90;;;;;;5043092;28;20178;-89
2023/09/15 03:22:27;;;;;;;3.80;3.50;;;13.90;99.90;;;;;;5044168;28;20206;-89
2023/09/15 03:24:54;;;;;;;3.40;3.10;;;13.80;99.90;;;;;;5038345;28;20971;-89
2023/09/15 03:27:21;;;;;;;3.58;3.28;;;13.80;99.90;;;;;;5063259;28;20232;-89
2023/09/15 03:29:46;;;;;;;4.22;2.90;;;14.00;99.90;;;;;;5045649;28;20178;-89
2023/09/15 03:32:12;;;;;;;4.10;3.23;;;13.90;99.90;;;;;;5041675;28;20300;-89
2023/09/15 03:34:38;;;;;;;4.87;3.93;;;14.20;99.90;;;;;;5038155;28;20187;-87
2023/09/15 03:37:04;;;;;;;3.90;3.60;;;14.00;99.90;;;;;;5039416;28;20590;-88
2023/09/15 03:39:29;;;;;;;3.50;3.20;;;14.00;99.90;;;;;;5045888;28;20181;-86
2023/09/15 03:41:55;;;;;;;3.50;3.20;;;13.80;99.90;;;;;;5038824;28;20212;-89
2023/09/15 03:44:22;;;;;;;4.93;3.10;;;14.20;99.90;;;;;;5040328;28;20259;-89
2023/09/15 03:46:48;;;;;;;3.70;3.40;;;13.60;99.90;;;;;;5046480;28;20223;-87
2023/09/15 03:49:13;;;;;;;4.70;3.73;;;13.90;99.90;;;;;;5039459;28;20193;-86
2023/09/15 03:51:39;;;;;;;4.40;4.00;;;13.80;99.90;;;;;;5046341;28;20459;-89
2023/09/15 03:54:04;;;;;;;4.60;4.13;;;13.70;99.90;;;;;;5037363;28;20224;-89
2023/09/15 03:56:30;;;;;;;4.27;3.60;;;13.70;99.90;;;;;;5040823;28;20189;-89
2023/09/15 03:58:55;;;;;;;4.30;3.47;;;14.10;99.90;;;;;;5042323;28;20178;-89
2023/09/15 04:01:23;;;;;;;3.37;3.07;;;13.70;99.90;;;;;;5045712;28;20600;-89
2023/09/15 04:03:49;;;;;;;3.75;3.45;;;14.20;99.90;;;;;;5047291;28;20201;-89
2023/09/15 04:06:16;;;;;;;6.70;3.53;;;13.70;99.90;;;;;;5038783;28;20281;-89
2023/09/15 04:08:42;;;;;;;4.53;3.42;;;14.00;99.90;;;;;;5035211;28;20663;-89
2023/09/15 04:11:07;;;;;;;4.70;3.67;;;14.00;99.90;;;;;;5043360;28;20292;-89
2023/09/15 04:13:33;;;;;;;3.53;3.20;;;13.90;99.90;;;;;;5035750;28;20467;-89
2023/09/15 04:16:00;;;;;;;4.13;3.73;;;14.00;99.90;;;;;;5044883;28;20247;-89
2023/09/15 04:18:26;;;;;;;4.72;3.30;;;13.60;99.90;;;;;;5047702;28;20672;-89
2023/09/15 04:20:52;;;;;;;4.07;3.60;;;14.00;99.90;;;;;;5047594;28;20284;-89
2023/09/15 04:23:18;;;;;;;7.38;3.67;;;13.60;99.90;;;;;;5040993;28;20483;-89
2023/09/15 04:25:44;;;;;;;4.87;3.50;;;13.80;99.90;;;;;;5041632;28;20216;-89
2023/09/15 04:28:09;;;;;;;3.90;3.50;;;13.90;99.90;;;;;;5047938;28;20212;-89
2023/09/15 04:30:34;;;;;;;3.97;3.53;;;13.60;99.90;;;;;;5044912;28;20719;-89
2023/09/15 04:33:00;;;;;;;4.07;3.67;;;13.70;99.90;;;;;;5043073;28;20268;-87
2023/09/15 04:35:27;;;;;;;4.10;3.60;;;13.90;99.90;;;;;;5043732;28;20186;-89
2023/09/15 04:37:53;;;;;;;3.53;3.22;;;13.50;99.90;;;;;;5042877;28;20455;-88
2023/09/15 04:40:19;;;;;;;4.07;3.75;;;14.00;99.90;;;;;;5045381;28;20715;-89
2023/09/15 04:42:45;;;;;;;5.77;3.80;;;13.60;99.90;;;;;;5044028;28;20292;-89
2023/09/15 04:45:11;;;;;;;3.65;3.35;;;13.60;99.90;;;;;;5041631;28;20324;-89
2023/09/15 04:47:37;;;;;;;3.77;3.47;;;14.00;99.90;;;;;;5037749;28;20365;-87
2023/09/15 04:50:06;;;;;;;3.97;3.58;;;13.70;99.90;;;;;;5045170;28;20999;-87
2023/09/15 04:52:31;;;;;;;4.93;3.75;;;13.80;99.90;;;;;;5039262;28;20209;-89
2023/09/15 04:54:57;;;;;;;5.17;3.60;;;13.30;99.90;;;;;;5037843;28;20189;-89
2023/09/15 04:57:23;;;;;;;4.27;3.67;;;13.90;99.90;;;;;;5040504;28;20655;-89
2023/09/15 04:59:48;;;;;;;4.20;3.70;;;13.70;99.90;;;;;;5047662;28;20186;-89
2023/09/15 05:02:14;;;;;;;4.27;3.87;;;13.00;99.90;;;;;;5045707;28;20487;-89
2023/09/15 05:04:40;;;;;;;4.75;3.80;;;13.50;99.90;;;;;;5037948;28;20555;-89
2023/09/15 05:07:06;;;;;;;4.30;3.90;;;13.30;99.90;;;;;;5042334;28;20611;-88
2023/09/15 05:09:32;;;;;;;6.43;4.63;;;13.60;99.90;;;;;;5036836;28;20444;-89
2023/09/15 05:11:58;;;;;;;5.83;5.33;;;13.40;99.90;;;;;;5035893;28;20290;-89
2023/09/15 05:14:23;;;;;;;5.30;4.80;;;13.40;99.90;;;;;;5062025;28;20665;-89
2023/09/15 05:16:49;;;;;;;5.47;4.53;;;13.90;99.90;;;;;;5044746;28;20186;-89
2023/09/15 05:19:15;;;;;;;4.30;3.90;;;13.20;99.90;;;;;;5047541;28;20213;-87
2023/09/15 05:21:41;;;;;;;5.50;4.23;;;13.30;99.90;;;;;;5046217;28;20248;-87
2023/09/15 05:24:07;;;;;;;6.22;5.00;;;13.80;99.90;;;;;;5041906;28;20209;-87
2023/09/15 05:26:32;;;;;;;4.97;4.47;;;13.50;99.90;;;;;;5041925;28;20281;-87
2023/09/15 05:28:59;;;;;;;5.03;4.53;;;13.80;99.90;;;;;;5049509;28;20196;-88
2023/09/15 05:31:28;;;;;;;4.80;4.15;;;13.60;99.90;;;;;;5042222;28;20208;-88
2023/09/15 05:33:55;;;;;;;5.43;4.15;;;14.00;99.90;;;;;;5046245;28;20383;-88
2023/09/15 05:36:21;;;;;;;7.13;3.60;;;13.90;99.90;;;;;;5040540;28;20665;-88
2023/09/15 05:38:48;;;;;;;4.68;4.05;;;13.90;99.90;;;;;;5047981;28;20220;-89
2023/09/15 05:41:14;;;;;;;6.45;4.80;;;14.00;99.90;;;;;;5044082;28;21346;-88
2023/09/15 05:43:39;;;;;;;5.25;4.75;;;13.90;99.90;;;;;;5047234;28;20869;-87
2023/09/15 05:46:05;;;;;;;10.70;5.13;;;14.10;99.90;;;;;;5047756;28;20181;-90
2023/09/15 05:48:31;;;;;;;6.25;4.95;;;13.70;99.90;;;;;;5043741;28;20342;-89
2023/09/15 05:50:56;;;;;;;5.60;4.20;;;13.70;99.90;;;;;;5039433;28;20174;-89
2023/09/15 05:53:22;;;;;;;9.53;4.50;;;14.80;99.90;;;;;;5054050;28;20617;-89
2023/09/15 05:55:48;;;;;;;6.17;3.97;;;13.90;99.90;;;;;;5040756;28;20250;-89
2023/09/15 05:58:13;;;;;;;10.40;5.13;;;14.10;99.90;;;;;;5054137;28;20181;-90
2023/09/15 06:00:41;;;;;;;4.93;4.40;;;14.10;99.90;;;;;;5047432;28;20247;-89
2023/09/15 06:03:07;;;;;;;4.93;4.35;;;14.50;99.90;;;;;;5060950;28;20459;-89
2023/09/15 06:05:33;;;;;;;7.95;5.30;;;14.30;99.90;;;;;;5057239;28;20244;-89
2023/09/15 06:07:59;;;;;;;4.97;4.35;;;14.70;99.90;;;;;;5055641;28;20642;-90
2023/09/15 06:10:24;;;;;;;4.87;4.37;;;14.50;99.90;;;;;;5036976;28;20466;-89
2023/09/15 06:12:51;;;;;;;7.40;5.40;;;14.80;99.90;;;;;;5032178;28;20205;-89
2023/09/15 06:15:17;;;;;;;5.75;4.47;;;14.50;99.90;;;;;;5045270;28;20229;-90
2023/09/15 06:17:43;;;;;;;4.90;4.13;;;14.40;99.90;;;;;;5041338;28;20182;-89
2023/09/15 06:20:09;;;;;;;4.83;4.10;;;14.80;99.90;;;;;;5046118;28;20287;-89
2023/09/15 06:22:34;;;;;;;8.03;4.77;;;14.70;99.90;;;;;;5042276;28;20205;-90
2023/09/15 06:25:01;;;;;;;4.80;4.30;;;15.10;99.90;;;;;;5043733;28;20240;-89
2023/09/15 06:27:26;;;;;;;6.00;4.80;;;15.10;99.90;;;;;;5041735;28;20186;-89
2023/09/15 06:29:52;;;;;;;4.77;4.27;;;14.90;99.90;;;;;;5047661;28;20170;-90
2023/09/15 06:32:18;;;;;;;5.00;4.47;;;15.40;99.90;;;;;;5040857;28;20221;-90
2023/09/15 06:34:44;;;;;;;4.95;4.50;;;15.40;99.90;;;;;;5030894;28;20190;-88
2023/09/15 06:37:09;;;;;;;6.40;4.97;;;15.50;99.90;;;;;;5060808;28;20189;-88
2023/09/15 06:39:36;;;;;;;4.57;4.17;;;15.60;99.90;;;;;;5064193;28;20434;-88
2023/09/15 06:42:04;;;;;;;5.28;4.78;;;15.20;99.90;;;;;;5041979;28;20233;-88
2023/09/15 06:44:34;;;;;;;5.30;4.80;;;15.20;99.90;;;;;;5046827;28;20246;-89
2023/09/15 06:47:00;;;;;;;6.38;4.82;;;15.30;99.90;;;;;;5040647;28;20182;-88
2023/09/15 06:49:27;;;;;;;5.90;5.30;;;15.90;99.90;;;;;;5049476;28;20265;-89
2023/09/15 06:51:54;;;;;;;6.57;5.82;;;16.00;99.90;;;;;;5050567;28;20201;-89
2023/09/15 06:54:21;;;;;;;7.38;5.70;;;16.00;99.90;;;;;;5038514;28;20190;-89
2023/09/15 06:56:46;;;;;;;8.70;5.63;;;16.10;99.90;;;;;;5044133;28;20189;-89
2023/09/15 06:59:12;;;;;;;6.80;6.10;;;16.60;99.90;;;;;;5057159;28;20209;-88
2023/09/15 07:01:39;;;;;;;7.10;5.27;;;16.40;99.90;;;;;;5045727;28;20694;-89
2023/09/15 07:04:05;;;;;;;6.10;5.60;;;17.00;99.90;;;;;;5042300;28;20233;-89
2023/09/15 07:06:31;;;;;;;10.15;9.18;;;19.30;99.90;;;;;;5049232;28;20218;-88
2023/09/15 07:08:57;;;;;;;7.40;6.67;;;21.50;99.70;;;;;;5046471;28;20716;-89
2023/09/15 07:11:22;;;;;;;7.50;6.20;;;23.30;96.40;;;;;;5041015;28;20436;-89
2023/09/15 07:13:48;;;;;;;5.60;5.03;;;24.50;93.20;;;;;;5044730;28;20186;-89
2023/09/15 07:16:13;;;;;;;5.43;4.93;;;25.20;91.10;;;;;;5058839;28;20182;-89
2023/09/15 07:18:39;;;;;;;5.63;4.80;;;26.60;87.20;;;;;;5050745;28;20184;-89
2023/09/15 07:21:04;;;;;;;5.40;4.90;;;28.60;80.00;;;;;;5075741;28;20196;-89
2023/09/15 07:23:30;;;;;;;6.23;5.43;;;28.80;76.30;;;;;;5056785;28;20209;-89
2023/09/15 07:25:55;;;;;;;5.90;5.40;;;28.80;71.60;;;;;;5046240;28;20189;-89
2023/09/15 07:28:21;;;;;;;6.60;5.97;;;28.40;74.70;;;;;;5042789;28;20177;-87
2023/09/15 07:30:46;;;;;;;6.77;6.00;;;29.80;71.30;;;;;;5049995;28;20553;-87
2023/09/15 07:33:12;;;;;;;7.57;5.40;;;30.60;66.90;;;;;;5045510;28;20245;-88
2023/09/15 07:35:38;;;;;;;7.07;6.33;;;31.60;64.50;;;;;;5047616;28;20529;-88
2023/09/15 07:38:04;;;;;;;5.43;4.93;;;32.40;61.60;;;;;;5052121;28;20202;-88
2023/09/15 07:40:31;;;;;;;6.03;5.53;;;32.70;60.70;;;;;;5066515;28;20180;-88
2023/09/15 07:42:56;;;;;;;6.77;6.17;;;33.60;57.30;;;;;;5056768;28;20475;-88
2023/09/15 07:45:23;;;;;;;9.20;6.93;;;34.50;55.00;;;;;;5051628;28;20506;-88
2023/09/15 07:47:49;;;;;;;7.80;6.27;;;33.90;52.80;;;;;;5035123;28;20698;-88
2023/09/15 07:50:17;;;;;;;7.00;6.40;;;34.30;54.70;;;;;;5046962;28;20439;-88
2023/09/15 07:52:46;;;;;;;7.50;6.80;;;35.00;52.80;;;;;;5047708;28;20460;-88
2023/09/15 07:55:12;;;;;;;6.30;5.70;;;35.10;50.80;;;;;;5051008;28;20450;-88
2023/09/15 07:57:39;;;;;;;5.93;5.33;;;35.40;51.10;;;;;;5045328;28;20949;-88
2023/09/15 08:00:07;;;;;;;5.90;5.40;;;35.50;49.70;;;;;;5044687;28;20490;-88
2023/09/15 08:02:32;;;;;;;6.00;5.50;;;35.60;50.00;;;;;;5038540;28;20464;-88
2023/09/15 08:04:58;;;;;;;7.37;5.50;;;35.90;49.00;;;;;;5050408;28;20464;-89
2023/09/15 08:07:24;;;;;;;6.23;5.73;;;36.70;48.30;;;;;;5029317;28;20232;-89
2023/09/15 08:09:49;;;;;;;6.47;5.97;;;35.80;48.10;;;;;;5049180;28;20190;-89
2023/09/15 08:12:18;;;;;;;7.57;6.87;;;36.50;48.30;;;;;;5042397;28;20217;-89
2023/09/15 08:14:44;;;;;;;6.40;5.80;;;35.70;48.20;;;;;;5050001;28;20180;-89
2023/09/15 08:17:10;;;;;;;7.30;6.60;;;34.10;49.40;;;;;;5046329;28;20490;-89
2023/09/15 08:19:35;;;;;;;6.73;6.10;;;35.00;50.30;;;;;;5049898;28;20209;-89
2023/09/15 08:22:01;;;;;;;6.20;5.70;;;34.40;49.30;;;;;;5048408;28;20673;-89
2023/09/15 08:24:26;;;;;;;7.50;5.73;;;35.40;49.90;;;;;;5048041;28;20205;-88
2023/09/15 08:26:52;;;;;;;5.97;5.50;;;35.10;49.40;;;;;;5060332;28;20179;-89
2023/09/15 08:29:17;;;;;;;7.53;5.80;;;34.50;49.20;;;;;;5054733;28;20237;-88
2023/09/15 08:31:43;;;;;;;7.33;6.63;;;34.10;50.10;;;;;;5088228;22;20246;-81
2023/09/15 08:34:09;;;;;;;6.50;5.90;;;33.10;53.10;;;;;;5031655;28;20190;-80
2023/09/15 08:36:34;;;;;;;6.70;6.10;;;31.90;57.90;;;;;;5034113;28;20182;-81
2023/09/15 08:39:00;;;;;;;10.70;9.70;;;31.20;59.80;;;;;;5011189;28;20559;-81
2023/09/15 08:41:32;;;;;;;7.37;6.53;;;27.90;62.50;;;;;;5025842;28;20195;-81
2023/09/15 08:43:58;;;;;;;6.10;5.50;;;28.60;68.00;;;;;;5030177;28;20481;-81
2023/09/15 08:46:27;;;;;;;6.47;5.50;;;26.00;72.20;;;;;;5028791;28;20446;-81
2023/09/15 08:48:57;;;;;;;7.30;6.70;;;25.80;73.40;;;;;;5027303;28;20452;-81
2023/09/15 08:51:25;;;;;;;11.00;6.80;;;26.40;77.10;;;;;;5030985;28;20572;-81
2023/09/15 08:53:56;;;;;;;8.07;7.27;;;27.60;81.30;;;;;;5027854;28;20539;-81
2023/09/15 08:56:22;;;;;;;8.70;6.70;;;24.20;82.70;;;;;;5029138;28;21017;-81
2023/09/15 08:58:48;;;;;;;9.13;6.63;;;23.60;86.10;;;;;;5027442;28;20445;-82
2023/09/15 09:01:18;;;;;;;7.27;6.57;;;25.50;90.40;;;;;;5038962;28;20426;-82
2023/09/15 09:03:43;;;;;;;6.90;6.30;;;24.80;90.70;;;;;;5032691;28;20221;-81
2023/09/15 09:06:13;;;;;;;8.73;6.90;;;26.10;92.30;;;;;;5039843;28;20441;-83
2023/09/15 09:08:45;;;;;;;6.43;5.80;;;23.00;91.00;;;;;;5038390;28;20444;-82
2023/09/15 09:11:10;;;;;;;7.73;7.03;;;25.00;92.70;;;;;;5034486;28;20466;-81
2023/09/15 09:13:38;;;;;;;6.27;5.63;;;23.40;94.40;;;;;;5034590;28;20512;-81
2023/09/15 09:16:07;;;;;;;7.67;6.87;;;;;;;;;;5055408;28;20201;-81
2023/09/15 09:18:35;;;;;;;5.90;5.40;;;22.40;93.40;;;;;;5048169;28;20453;-81
2023/09/15 09:21:04;;;;;;;6.80;6.20;;;22.50;93.50;;;;;;5037094;28;20445;-81
2023/09/15 09:23:31;;;;;;;6.03;5.53;;;23.20;93.20;;;;;;5031871;28;20466;-81
2023/09/15 09:26:00;;;;;;;6.73;6.13;;;23.60;92.30;;;;;;5021626;28;20450;-81
2023/09/15 09:28:26;;;;;;;7.53;6.40;;;23.90;92.10;;;;;;5021973;28;20433;-82
2023/09/15 09:30:55;;;;;;;7.13;6.40;;;23.20;92.30;;;;;;5023059;28;20443;-81
2023/09/15 09:33:22;;;;;;;7.67;6.90;;;22.90;92.90;;;;;;5017061;28;20492;-82
2023/09/15 09:35:49;;;;;;;7.63;6.97;;;23.40;93.30;;;;;;5022525;28;20457;-82
2023/09/15 09:38:15;;;;;;;7.10;6.40;;;23.00;93.10;;;;;;5020686;28;20446;-82
2023/09/15 09:40:41;;;;;;;7.80;6.50;;;23.00;93.30;;;;;;5020684;28;20468;-81
2023/09/15 09:43:07;;;;;;;8.67;6.17;;;23.70;93.50;;;;;;5016049;28;20521;-81
2023/09/15 09:45:32;;;;;;;6.97;6.37;;;23.90;92.70;;;;;;5017869;28;20477;-81
2023/09/15 09:48:00;;;;;;;7.70;6.90;;;24.60;91.40;;;;;;5017487;28;20200;-81
2023/09/15 09:50:27;;;;;;;8.10;7.40;;;24.90;90.50;;;;;;5008224;28;20203;-82
2023/09/15 09:52:53;;;;;;;7.10;6.40;;;24.80;90.20;;;;;;5015463;28;20474;-81
2023/09/15 09:55:20;;;;;;;7.67;6.87;;;24.70;91.30;;;;;;5024960;28;20528;-81
2023/09/15 09:57:46;;;;;;;6.93;6.43;;;24.60;91.20;;;;;;5038209;28;20464;-82
2023/09/15 10:00:22;;;;;;;6.73;6.03;;;24.50;91.00;;;;;;5023990;28;20434;-82
2023/09/15 10:02:47;;;;;;;7.10;6.50;;;24.70;91.40;;;;;;5015863;28;20465;-82
2023/09/15 10:05:14;;;;;;;7.60;6.80;;;24.80;91.20;;;;;;5020557;28;20465;-82
2023/09/15 10:07:48;;;;;;;6.80;6.20;;;24.50;91.30;;;;;;5017591;28;20435;-81
2023/09/15 10:10:14;;;;;;;6.90;5.40;;;24.50;91.40;;;;;;5022236;28;20434;-81
2023/09/15 10:12:41;;;;;;;7.23;6.57;;;24.70;91.60;;;;;;5021747;28;20514;-82
2023/09/15 10:15:07;;;;;;;6.80;6.20;;;25.10;92.00;;;;;;5022921;28;20441;-81
2023/09/15 10:17:33;;;;;;;7.23;6.50;;;24.50;91.70;;;;;;5027483;28;20480;-82
2023/09/15 10:20:00;;;;;;;6.10;5.50;;;24.70;91.60;;;;;;5025053;28;20529;-81
2023/09/15 10:22:26;;;;;;;6.73;5.80;;;24.50;91.50;;;;;;5018113;28;20526;-81
2023/09/15 10:24:58;;;;;;;6.87;5.80;;;24.40;91.90;;;;;;5023113;28;20489;-82
2023/09/15 10:27:34;;;;;;;6.33;5.83;;;24.50;91.70;;;;;;5029954;28;20183;-82
2023/09/15 10:30:07;;;;;;;7.23;6.43;;;24.40;91.80;;;;;;5031202;28;20445;-81
2023/09/15 10:32:39;;;;;;;6.87;6.27;;;24.30;91.90;;;;;;5011930;28;20482;-81
2023/09/15 10:35:06;;;;;;;6.50;6.00;;;24.50;92.50;;;;;;5028263;28;20429;-81
2023/09/15 10:37:33;;;;;;;7.50;6.30;;;24.30;92.30;;;;;;5031008;28;20437;-81
2023/09/15 10:40:05;;;;;;;5.80;5.40;;;24.20;92.30;;;;;;5024265;28;20430;-81
2023/09/15 10:42:34;;;;;;;7.20;5.63;;;24.90;92.60;;;;;;5029445;28;20473;-81
2023/09/15 10:45:12;;;;;;;7.13;5.90;;;24.40;92.30;;;;;;5041196;28;20526;-82
2023/09/15 10:47:40;;;;;;;6.50;6.00;;;24.40;92.20;;;;;;5027581;28;20941;-82
2023/09/15 10:50:07;;;;;;;7.70;6.67;;;24.40;92.30;;;;;;5022790;28;20499;-82
2023/09/15 10:52:38;;;;;;;6.57;6.07;;;24.20;92.30;;;;;;5026203;28;20478;-82
2023/09/15 10:55:05;;;;;;;7.60;6.80;;;24.20;92.80;;;;;;5037897;28;20972;-82
2023/09/15 10:57:35;;;;;;;7.70;6.70;;;24.30;92.60;;;;;;5021548;28;21124;-82
2023/09/15 11:00:06;;;;;;;9.80;6.67;;;25.30;92.90;;;;;;5024821;28;20438;-81
2023/09/15 11:02:34;;;;;;;7.30;6.53;;;24.60;92.50;;;;;;5026335;28;20455;-81
2023/09/15 11:05:01;;;;;;;6.40;5.90;;;24.80;92.30;;;;;;5027658;28;20500;-81
2023/09/15 11:07:28;;;;;;;6.10;5.60;;;24.70;92.00;;;;;;5026336;28;20435;-81
2023/09/15 11:09:58;;;;;;;6.23;5.63;;;25.00;91.80;;;;;;5027025;28;20504;-81
2023/09/15 11:12:24;;;;;;;5.80;5.13;;;24.80;92.00;;;;;;5020847;28;20945;-82
2023/09/15 11:14:50;;;;;;;6.47;5.87;;;24.90;91.90;;;;;;5027788;28;20454;-82
2023/09/15 11:17:18;;;;;;;7.13;5.80;;;24.90;91.40;;;;;;5024360;28;20184;-81
2023/09/15 11:19:44;;;;;;;5.90;5.40;;;24.80;91.70;;;;;;5028727;28;20211;-81
2023/09/15 11:22:11;;;;;;;6.27;5.77;;;24.50;91.80;;;;;;5024871;28;20474;-82
2023/09/15 11:24:37;;;;;;;6.63;5.93;;;24.80;92.00;;;;;;5005136;28;20213;-82
2023/09/15 11:27:04;;;;;;;5.50;5.00;;;24.70;91.90;;;;;;5031658;28;20497;-81
2023/09/15 11:29:30;;;;;;;6.33;5.47;;;25.00;91.50;;;;;;5025884;28;20185;-81
2023/09/15 11:31:56;;;;;;;5.10;4.60;;;25.20;91.10;;;;;;5026385;28;20513;-81
2023/09/15 11:34:22;;;;;;;5.50;5.10;;;26.10;91.40;;;;;;5026518;28;20447;-81
2023/09/15 11:36:51;;;;;;;5.93;5.43;;;25.40;90.50;;;;;;5030518;28;20444;-81
2023/09/15 11:39:17;;;;;;;6.23;5.73;;;25.40;90.50;;;;;;5049669;28;20193;-81
2023/09/15 11:41:53;;;;;;;6.33;5.73;;;25.60;90.00;;;;;;5033312;28;20464;-81
2023/09/15 11:44:31;;;;;;;6.07;5.53;;;25.80;90.10;;;;;;5012029;28;20209;-82
2023/09/15 11:47:00;;;;;;;5.93;5.37;;;25.40;89.70;;;;;;5042203;28;20469;-82
2023/09/15 11:49:26;;;;;;;5.63;5.13;;;25.40;90.00;;;;;;5028581;28;20442;-81
2023/09/15 11:51:57;;;;;;;6.10;5.50;;;25.40;89.70;;;;;;5027310;28;20464;-82
2023/09/15 11:54:24;;;;;;;6.77;6.17;;;25.50;89.90;;;;;;5041952;28;20428;-82
2023/09/15 11:56:50;;;;;;;6.70;6.10;;;26.60;90.00;;;;;;5030472;28;20452;-81
2023/09/15 11:59:18;;;;;;;5.53;5.13;;;26.00;88.20;;;;;;5027054;28;20437;-82
2023/09/15 12:01:46;;;;;;;6.87;6.27;;;26.20;87.10;;;;;;5028048;28;20463;-82
2023/09/15 12:04:12;;;;;;;6.43;5.93;;;26.60;86.40;;;;;;5025182;28;20459;-81
2023/09/15 12:06:37;;;;;;;6.13;5.63;;;26.80;85.20;;;;;;5033534;28;20410;-81
2023/09/15 12:09:04;;;;;;;5.87;5.40;;;27.20;84.20;;;;;;5034455;28;20437;-82
2023/09/15 12:11:30;;;;;;;5.73;5.23;;;26.80;83.90;;;;;;5032316;28;20433;-82
2023/09/15 12:13:56;;;;;;;4.80;4.50;;;26.60;84.40;;;;;;5021703;28;20433;-81
2023/09/15 12:16:28;;;;;;;5.50;5.00;;;26.60;84.60;;;;;;5028057;28;20416;-81
2023/09/15 12:18:55;;;;;;;5.70;5.20;;;26.50;84.30;;;;;;5038955;28;20447;-82
2023/09/15 12:21:28;;;;;;;6.00;5.50;;;27.00;85.90;;;;;;5018596;28;20452;-83
2023/09/15 12:23:56;;;;;;;6.17;5.67;;;26.50;84.40;;;;;;5025302;28;20523;-82
2023/09/15 12:26:25;;;;;;;5.50;5.00;;;26.80;84.50;;;;;;4994055;28;20496;-82
2023/09/15 12:28:53;;;;;;;5.50;5.10;;;26.80;84.10;;;;;;5028468;28;20424;-81
2023/09/15 12:31:22;;;;;;;5.97;5.40;;;26.30;84.00;;;;;;5010912;28;20433;-84
2023/09/15 12:34:00;;;;;;;5.80;5.10;;;26.40;84.10;;;;;;5039621;28;20443;-82
2023/09/15 12:36:29;;;;;;;5.10;4.70;;;26.40;83.40;;;;;;5024230;28;20449;-81
2023/09/15 12:38:54;;;;;;;5.10;4.70;;;26.40;82.30;;;;;;5022044;28;20438;-81
2023/09/15 12:41:20;;;;;;;5.20;4.70;;;26.50;81.50;;;;;;5025126;28;20445;-84
2023/09/15 12:43:45;;;;;;;5.97;5.47;;;26.60;81.80;;;;;;5024712;28;20196;-82
2023/09/15 12:46:11;;;;;;;5.43;4.93;;;26.60;81.90;;;;;;5020794;28;20187;-82